Isle of Rum, United Kingdom
Current Conditions -  °F | °C
As of 12:50 PM on Thursday 30 Oct 2014 (Local Time) from EGPU Reporting Station
Broken Clouds Broken Clouds  
Wind Chill: 14°   Ceiling: 2000
Heat Index: 14°   Visibility: 4mi
Dew Point: 13°   Wind: 20mph
Humidity: 94%   Direction: 150°SSE
Pressure: 29.77"   Gusts: NA
Location:  57.01°N, 6.28°W
Report Text: EGPU 301250Z AUTO 15017KT 7000 SCT005/// BKN020/// 14/13 Q1008 RERA
Loading
Personal Weather Stations






























Interactive Weather Map
Tropical Storm Tracking
New forecast layout! Learn more

10-Day Weather Forecast

Advertisements
Track Severe Weather on mobile